Terminal Aerodrome Forecast
Issued by NWS Sterling, VA

Home | Current Version | Previous Version | Text Only | Print | Product List | Glossary On
Versions: 1 2 3 4 5 6 7 8 9 10 11 12 13 14 15 16 17 18 19 20 21 22 23 24 25 26 27 28 29 30 31 32 33 34
000
FTUS41 KLWX 251912 AAD
TAFCHO
TAF AMD
KCHO 251912Z 2519/2618 17005KT P6SM FEW090 OVC250
     FM252100 23009KT P6SM OVC250
     FM260100 26005KT P6SM OVC250
     FM261700 VRB03KT P6SM SCT090=

USA.gov is the U.S. government's official web portal to all federal, state and local government web resources and services.